Time;durP1;ratioP1;P1;durP2;ratioP2;P2;SDS_P1;SDS_P2;PMS_P1;PMS_P2;Temp;Humidity;BMP_temperature;BMP_pressure;BME280_temperature;BME280_humidity;BME280_pressure;Samples;Min_cycle;Max_cycle;Signal;HPM_P1;HPM_P2
2023/03/03 00:02:11;;;;;;;56.10;22.63;;;;;;;5.45;nan;100424.78;4998657;28;20037;-68
2023/03/03 00:04:37;;;;;;;53.27;22.73;;;;;;;5.47;nan;100416.97;5002486;28;20033;-68
2023/03/03 00:07:02;;;;;;;49.58;22.27;;;;;;;5.46;nan;100423.94;5012377;28;20057;-68
2023/03/03 00:09:28;;;;;;;50.77;21.87;;;;;;;5.48;nan;100423.97;4997103;28;20121;-68
2023/03/03 00:11:56;;;;;;;51.73;22.20;;;;;;;5.51;nan;100425.75;4998645;28;20022;-68
2023/03/03 00:14:31;;;;;;;48.78;21.15;;;;;;;5.51;nan;100417.91;4998616;28;20048;-68
2023/03/03 00:17:06;;;;;;;50.22;21.25;;;;;;;5.53;nan;100416.22;4998503;28;20034;-68
2023/03/03 00:19:37;;;;;;;74.03;29.17;;;;;;;5.51;nan;100418.78;4998596;28;20034;-68
2023/03/03 00:22:16;;;;;;;48.70;23.25;;;;;;;5.49;nan;100414.41;4998120;28;20437;-68
2023/03/03 00:24:41;;;;;;;49.58;22.67;;;;;;;5.49;nan;100417.00;4996609;28;20402;-68
2023/03/03 00:27:26;;;;;;;47.27;21.10;;;;;;;5.43;nan;100413.44;5005837;28;20109;-69
2023/03/03 00:29:59;;;;;;;53.53;23.02;;;;;;;5.43;nan;100416.06;4986338;28;20027;-69
2023/03/03 00:32:41;;;;;;;51.60;23.25;;;;;;;5.39;nan;100408.97;4986870;28;20026;-68
2023/03/03 00:35:37;;;;;;;62.25;25.48;;;;;;;5.39;nan;100406.38;4979856;28;20023;-68
2023/03/03 00:38:19;;;;;;;53.80;21.83;;;;;;;5.39;nan;100414.19;4980267;28;20030;-68
2023/03/03 00:40:46;;;;;;;55.97;23.17;;;;;;;5.38;nan;100412.44;4984681;28;20018;-68
2023/03/03 00:43:20;;;;;;;54.03;24.13;;;;;;;5.35;nan;100408.91;4988681;28;20037;-68
2023/03/03 00:45:55;;;;;;;51.90;24.02;;;;;;;5.32;nan;100407.13;4997877;28;20042;-68
2023/03/03 00:48:20;;;;;;;49.53;21.52;;;;;;;5.32;nan;100408.00;4997977;28;20414;-68
2023/03/03 00:50:46;;;;;;;52.50;23.23;;;;;;;5.31;nan;100411.47;4996601;28;20040;-68
2023/03/03 00:53:18;;;;;;;54.77;24.37;;;;;;;5.31;nan;100410.56;4997925;28;20117;-68
2023/03/03 00:55:46;;;;;;;66.63;27.48;;;;;;;5.30;nan;100414.03;4996974;28;20030;-68
2023/03/03 00:58:12;;;;;;;57.13;24.55;;;;;;;5.28;nan;100406.16;4997391;28;20030;-68
2023/03/03 01:00:38;;;;;;;59.53;24.23;;;;;;;5.28;nan;100410.53;4978119;28;20051;-68
2023/03/03 01:03:07;;;;;;;55.58;25.35;;;;;;;5.26;nan;100417.44;4978674;28;20058;-68
2023/03/03 01:05:34;;;;;;;57.70;25.30;;;;;;;5.24;nan;100406.09;5006813;28;20108;-68
2023/03/03 01:08:00;;;;;;;81.15;30.83;;;;;;;5.25;nan;100410.47;5003957;28;20085;-68
2023/03/03 01:10:29;;;;;;;68.82;30.05;;;;;;;5.24;nan;100414.78;4997253;28;20533;-68
2023/03/03 01:12:56;;;;;;;51.30;23.40;;;;;;;5.25;nan;100411.31;4997615;28;20033;-68
2023/03/03 01:15:22;;;;;;;54.40;23.83;;;;;;;5.25;nan;100420.91;4997750;28;20467;-68
2023/03/03 01:17:48;;;;;;;55.70;24.77;;;;;;;5.22;nan;100407.78;4997401;28;20173;-68
2023/03/03 01:20:14;;;;;;;50.63;23.07;;;;;;;5.20;nan;100412.97;4997407;28;20053;-68
2023/03/03 01:22:40;;;;;;;52.83;23.98;;;;;;;5.20;nan;100414.72;4997388;28;20399;-69
2023/03/03 01:25:06;;;;;;;50.03;22.67;;;;;;;5.19;nan;100415.56;4995746;28;20038;-68
2023/03/03 01:27:32;;;;;;;69.55;29.48;;;;;;;5.16;nan;100412.00;5007997;28;20056;-68
2023/03/03 01:29:58;;;;;;;60.95;25.45;;;;;;;5.16;nan;100403.31;4978119;28;20570;-68
2023/03/03 01:32:24;;;;;;;52.80;24.00;;;;;;;5.16;nan;100414.63;4988655;28;20026;-68
2023/03/03 01:34:50;;;;;;;59.85;26.38;;;;;;;5.16;nan;100411.16;4978362;28;20109;-68
2023/03/03 01:37:15;;;;;;;71.43;28.30;;;;;;;5.17;nan;100398.09;4978054;28;20077;-68
2023/03/03 01:39:40;;;;;;;62.05;24.88;;;;;;;5.18;nan;100406.84;4984052;28;20061;-68
2023/03/03 01:42:06;;;;;;;60.50;25.87;;;;;;;5.15;nan;100410.25;4983337;28;20046;-68
2023/03/03 01:44:32;;;;;;;64.00;27.95;;;;;;;5.15;nan;100405.03;4990942;28;20084;-68
2023/03/03 01:47:12;;;;;;;52.97;24.33;;;;;;;5.12;nan;100401.50;4978063;28;20090;-69
2023/03/03 01:50:01;;;;;;;56.03;25.02;;;;;;;5.10;nan;100393.63;4977837;28;20030;-68
2023/03/03 01:52:36;;;;;;;62.13;26.08;;;;;;;5.10;nan;100403.19;4977837;28;20031;-68
2023/03/03 01:55:08;;;;;;;64.93;27.02;;;;;;;5.08;nan;100397.06;4977818;28;20034;-68
2023/03/03 01:57:38;;;;;;;58.93;24.93;;;;;;;5.07;nan;100398.78;4976502;28;20089;-68
2023/03/03 02:00:05;;;;;;;56.47;23.75;;;;;;;5.08;nan;100403.16;4993108;28;20133;-68
2023/03/03 02:02:31;;;;;;;53.25;24.20;;;;;;;5.06;nan;100397.03;4996968;28;20126;-68
2023/03/03 02:04:57;;;;;;;55.55;23.75;;;;;;;5.08;nan;100392.72;5003185;28;20037;-68
2023/03/03 02:07:26;;;;;;;59.53;24.60;;;;;;;5.07;nan;100398.78;5007536;28;20035;-68
2023/03/03 02:10:05;;;;;;;58.17;24.55;;;;;;;5.05;nan;100392.66;5000578;28;20395;-68
2023/03/03 02:12:36;;;;;;;55.75;23.85;;;;;;;5.07;nan;100387.47;5001033;28;20041;-68
2023/03/03 02:15:20;;;;;;;55.70;23.67;;;;;;;5.08;nan;100386.63;5000938;28;20420;-68
2023/03/03 02:17:48;;;;;;;55.63;24.42;;;;;;;5.12;nan;100378.88;5000840;28;20153;-68
2023/03/03 02:20:29;;;;;;;55.23;24.23;;;;;;;5.13;nan;100374.53;4999468;28;20158;-68
2023/03/03 02:23:08;;;;;;;56.00;23.55;;;;;;;5.12;nan;100378.88;5000559;28;20037;-69
2023/03/03 02:25:53;;;;;;;53.13;24.10;;;;;;;5.10;nan;100375.34;5000556;28;20030;-68
2023/03/03 02:28:19;;;;;;;57.33;24.60;;;;;;;5.12;nan;100368.44;5004023;28;20081;-68
2023/03/03 02:30:45;;;;;;;54.88;23.80;;;;;;;5.13;nan;100375.41;4990690;28;20166;-68
2023/03/03 02:33:10;;;;;;;54.00;23.40;;;;;;;5.14;nan;100368.47;4982134;28;20208;-69
2023/03/03 02:35:39;;;;;;;55.47;24.70;;;;;;;5.14;nan;100371.09;4990548;28;20054;-68
2023/03/03 02:38:29;;;;;;;55.90;24.37;;;;;;;5.11;nan;100374.50;4981700;28;20274;-69
2023/03/03 02:41:29;;;;;;;56.58;24.55;;;;;;;5.09;nan;100372.72;4986697;28;20029;-68
2023/03/03 02:44:02;;;;;;;56.42;23.83;;;;;;;5.11;nan;100369.28;4962855;28;20071;-68
2023/03/03 02:46:42;;;;;;;60.13;24.23;;;;;;;5.11;nan;100365.81;4981017;28;20039;-68
2023/03/03 02:49:09;;;;;;;58.90;23.85;;;;;;;5.11;nan;100371.03;4980746;28;20033;-69
2023/03/03 02:51:35;;;;;;;52.30;23.80;;;;;;;5.11;nan;100369.28;4980800;28;20030;-68
2023/03/03 02:54:01;;;;;;;55.70;23.92;;;;;;;5.11;nan;100365.81;4980273;28;20372;-68
2023/03/03 02:56:27;;;;;;;52.92;23.63;;;;;;;5.10;nan;100362.31;4980770;28;20034;-68
2023/03/03 02:58:52;;;;;;;58.27;25.37;;;;;;;5.09;nan;100363.16;4984192;28;20018;-68
2023/03/03 03:01:18;;;;;;;60.08;25.95;;;;;;;5.07;nan;100364.84;4980478;28;20058;-68
2023/03/03 03:03:44;;;;;;;56.93;24.67;;;;;;;5.06;nan;100368.31;4986346;28;20038;-68
2023/03/03 03:06:09;;;;;;;55.20;24.58;;;;;;;5.05;nan;100370.88;5013691;28;20022;-68
2023/03/03 03:08:34;;;;;;;60.13;25.37;;;;;;;5.03;nan;100363.91;5001382;28;20038;-68
2023/03/03 03:11:00;;;;;;;60.30;26.33;;;;;;;5.02;nan;100363.88;5000083;28;20023;-68
2023/03/03 03:13:26;;;;;;;58.03;25.17;;;;;;;5.02;nan;100367.38;4999929;28;20105;-68
2023/03/03 03:15:51;;;;;;;56.37;23.77;;;;;;;5.01;nan;100365.59;4998503;28;20506;-68
2023/03/03 03:18:17;;;;;;;55.60;24.07;;;;;;;5.00;nan;100368.19;4999695;28;20030;-69
2023/03/03 03:20:43;;;;;;;57.63;24.33;;;;;;;4.99;nan;100366.44;4999397;28;20025;-68
2023/03/03 03:23:11;;;;;;;58.20;24.43;;;;;;;4.97;nan;100370.75;4999403;28;20034;-68
2023/03/03 03:25:41;;;;;;;57.88;24.75;;;;;;;4.96;nan;100369.84;4990403;28;20034;-68
2023/03/03 03:28:07;;;;;;;56.47;24.00;;;;;;;4.94;nan;100363.72;5004869;28;20031;-68
2023/03/03 03:30:34;;;;;;;62.60;25.10;;;;;;;4.95;nan;100365.50;4988067;28;20086;-68
2023/03/03 03:33:00;;;;;;;55.80;24.73;;;;;;;4.94;nan;100361.13;4983145;28;20085;-68
2023/03/03 03:35:25;;;;;;;53.47;24.20;;;;;;;4.95;nan;100364.63;4980104;28;20015;-68
2023/03/03 03:37:50;;;;;;;60.77;26.27;;;;;;;4.94;nan;100360.22;4979728;28;20117;-68
2023/03/03 03:40:16;;;;;;;58.03;25.47;;;;;;;4.93;nan;100363.69;4982811;28;20056;-69
2023/03/03 03:42:41;;;;;;;57.42;25.27;;;;;;;4.93;nan;100364.56;4990488;28;20411;-68
2023/03/03 03:45:07;;;;;;;56.27;24.67;;;;;;;4.94;nan;100363.72;4989865;28;20126;-69
2023/03/03 03:47:33;;;;;;;58.50;24.92;;;;;;;4.95;nan;100360.25;4979829;28;20039;-68
2023/03/03 03:49:58;;;;;;;57.43;26.33;;;;;;;4.95;nan;100359.41;4979775;28;20035;-68
2023/03/03 03:52:23;;;;;;;55.77;24.63;;;;;;;4.96;nan;100355.94;4979676;28;20034;-68
2023/03/03 03:54:49;;;;;;;59.17;24.07;;;;;;;4.94;nan;100352.41;4979535;28;20027;-69
2023/03/03 03:57:14;;;;;;;57.60;25.03;;;;;;;4.94;nan;100362.84;4978413;28;20435;-68
2023/03/03 03:59:39;;;;;;;56.03;24.80;;;;;;;4.92;nan;100360.22;4991809;28;20034;-69
2023/03/03 04:02:05;;;;;;;53.67;23.77;;;;;;;4.93;nan;100361.06;4998867;28;20030;-69
2023/03/03 04:04:30;;;;;;;55.23;24.67;;;;;;;4.94;nan;100357.59;5000523;28;20030;-68
2023/03/03 04:06:56;;;;;;;59.43;25.90;;;;;;;4.94;nan;100362.84;5013707;28;20113;-68
2023/03/03 04:09:21;;;;;;;59.05;26.13;;;;;;;4.94;nan;100365.44;4998529;28;20034;-69
2023/03/03 04:11:47;;;;;;;54.37;24.23;;;;;;;4.93;nan;100377.63;4998993;28;20068;-68
2023/03/03 04:14:12;;;;;;;55.40;24.37;;;;;;;4.95;nan;100375.06;4998856;28;20026;-68
2023/03/03 04:16:38;;;;;;;56.90;24.97;;;;;;;4.93;nan;100372.41;4998697;28;20265;-68
2023/03/03 04:19:03;;;;;;;58.37;26.20;;;;;;;4.94;nan;100374.16;4998980;28;20034;-68
2023/03/03 04:21:29;;;;;;;61.50;26.27;;;;;;;4.95;nan;100377.66;4997050;28;20041;-69
2023/03/03 04:23:54;;;;;;;59.90;25.43;;;;;;;4.96;nan;100377.69;4978719;28;20121;-69
2023/03/03 04:26:19;;;;;;;56.00;24.98;;;;;;;4.96;nan;100382.03;4981268;28;20033;-68
2023/03/03 04:28:45;;;;;;;56.87;24.43;;;;;;;4.95;nan;100381.16;4995374;28;20054;-68
2023/03/03 04:31:10;;;;;;;57.60;24.60;;;;;;;4.94;nan;100381.09;4990058;28;20037;-68
2023/03/03 04:33:35;;;;;;;53.27;23.97;;;;;;;4.94;nan;100375.88;4978959;28;20031;-68
2023/03/03 04:36:01;;;;;;;59.73;25.13;;;;;;;4.95;nan;100380.28;4978941;28;20058;-68
2023/03/03 04:38:26;;;;;;;56.88;24.42;;;;;;;4.95;nan;100385.50;4978662;28;20479;-68
2023/03/03 04:40:52;;;;;;;57.63;25.13;;;;;;;4.93;nan;100375.00;4989873;28;20405;-69
2023/03/03 04:43:17;;;;;;;58.53;24.57;;;;;;;4.95;nan;100375.94;4986584;28;20494;-68
2023/03/03 04:45:43;;;;;;;59.15;25.40;;;;;;;4.95;nan;100382.88;4983989;28;20042;-68
2023/03/03 04:48:09;;;;;;;55.67;24.07;;;;;;;4.96;nan;100382.03;4978821;28;20030;-68
2023/03/03 04:50:34;;;;;;;60.13;24.80;;;;;;;4.95;nan;100385.50;4978661;28;20483;-68
2023/03/03 04:52:59;;;;;;;55.10;24.37;;;;;;;4.95;nan;100390.72;4978462;28;20266;-68
2023/03/03 04:55:25;;;;;;;53.43;24.47;;;;;;;4.93;nan;100377.63;4978482;28;20023;-68
2023/03/03 04:57:50;;;;;;;57.60;24.87;;;;;;;4.93;nan;100381.94;4978487;28;20045;-68
2023/03/03 05:00:16;;;;;;;59.13;24.23;;;;;;;4.92;nan;100381.09;4995692;28;20136;-68
2023/03/03 05:02:43;;;;;;;57.67;24.20;;;;;;;4.91;nan;100383.66;4998313;28;20471;-68
2023/03/03 05:05:09;;;;;;;56.57;24.50;;;;;;;4.92;nan;100385.41;5002510;28;20137;-68
2023/03/03 05:07:35;;;;;;;58.22;25.63;;;;;;;4.89;nan;100387.09;5007967;28;20073;-68
2023/03/03 05:10:00;;;;;;;58.13;25.20;;;;;;;4.89;nan;100383.63;4997576;28;20026;-68
2023/03/03 05:12:26;;;;;;;53.55;23.80;;;;;;;4.89;nan;100381.03;4997814;28;20050;-68
2023/03/03 05:14:51;;;;;;;55.73;23.50;;;;;;;4.89;nan;100381.88;4997953;28;20034;-68
2023/03/03 05:17:17;;;;;;;55.97;25.10;;;;;;;4.89;nan;100387.09;4990306;28;20031;-69
2023/03/03 05:19:42;;;;;;;58.10;25.00;;;;;;;4.87;nan;100386.19;4978371;28;20030;-68
2023/03/03 05:22:08;;;;;;;51.73;21.70;;;;;;;4.84;nan;100383.53;4977006;28;20053;-68
2023/03/03 05:24:33;;;;;;;53.27;23.63;;;;;;;4.84;nan;100387.88;4988345;28;20023;-68
2023/03/03 05:26:59;;;;;;;57.15;24.13;;;;;;;4.82;nan;100387.84;4990975;28;20564;-68
2023/03/03 05:29:25;;;;;;;53.03;23.07;;;;;;;4.82;nan;100389.53;4989911;28;20070;-68
2023/03/03 05:31:50;;;;;;;51.50;22.88;;;;;;;4.81;nan;100387.78;4989226;28;20023;-68
2023/03/03 05:34:15;;;;;;;55.63;24.10;;;;;;;4.81;nan;100388.69;4978220;28;20034;-68
2023/03/03 05:36:41;;;;;;;55.63;24.07;;;;;;;4.81;nan;100388.69;4978128;28;20113;-68
2023/03/03 05:39:06;;;;;;;55.70;24.57;;;;;;;4.83;nan;100392.19;4977865;28;20402;-68
2023/03/03 05:41:35;;;;;;;60.83;25.50;;;;;;;4.83;nan;100384.38;4983376;28;20086;-69
2023/03/03 05:44:01;;;;;;;58.63;25.07;;;;;;;4.84;nan;100388.75;4990785;28;20030;-68
2023/03/03 05:46:26;;;;;;;56.40;25.67;;;;;;;4.85;nan;100392.25;4978128;28;20037;-68
2023/03/03 05:48:52;;;;;;;55.97;24.60;;;;;;;4.85;nan;100389.63;4977924;28;20039;-68
2023/03/03 05:51:17;;;;;;;55.07;25.23;;;;;;;4.86;nan;100392.25;4978068;28;20085;-68
2023/03/03 05:53:43;;;;;;;56.33;23.90;;;;;;;4.86;nan;100384.44;4977578;28;20019;-68
2023/03/03 05:56:08;;;;;;;58.10;24.80;;;;;;;4.86;nan;100392.25;4978715;28;20110;-68
2023/03/03 05:58:34;;;;;;;58.43;25.10;;;;;;;4.84;nan;100393.09;4982962;28;20046;-68
2023/03/03 06:00:59;;;;;;;57.17;25.33;;;;;;;4.83;nan;100397.41;4998213;28;20046;-68
2023/03/03 06:03:25;;;;;;;63.47;25.87;;;;;;;4.82;nan;100400.88;5001033;28;20116;-68
2023/03/03 06:05:50;;;;;;;58.37;25.20;;;;;;;4.83;nan;100396.56;5008214;28;20026;-68
2023/03/03 06:08:15;;;;;;;59.30;25.43;;;;;;;4.86;nan;100399.22;5002247;28;20027;-68
2023/03/03 06:10:41;;;;;;;59.33;24.87;;;;;;;4.85;nan;100398.34;4998492;28;20065;-68
2023/03/03 06:13:06;;;;;;;56.83;24.23;;;;;;;4.86;nan;100402.69;4998538;28;20034;-68
2023/03/03 06:15:31;;;;;;;63.60;25.83;;;;;;;4.86;nan;100402.69;4978933;28;20430;-68
2023/03/03 06:17:57;;;;;;;60.20;25.47;;;;;;;4.86;nan;100407.06;4978495;28;20506;-68
2023/03/03 06:20:22;;;;;;;58.03;25.50;;;;;;;4.86;nan;100407.91;4980235;28;20030;-69
2023/03/03 06:22:47;;;;;;;61.57;25.93;;;;;;;4.87;nan;100417.50;4979433;28;20034;-68
2023/03/03 06:25:13;;;;;;;65.27;26.30;;;;;;;4.86;nan;100413.13;4977129;28;20082;-68
2023/03/03 06:27:40;;;;;;;67.53;25.73;;;;;;;4.86;nan;100413.13;4977724;28;20285;-68
2023/03/03 06:30:06;;;;;;;62.60;25.80;;;;;;;4.86;nan;100413.13;4982116;28;20034;-68
2023/03/03 06:32:31;;;;;;;58.77;25.53;;;;;;;4.85;nan;100415.72;4983119;28;20035;-68
2023/03/03 06:34:57;;;;;;;57.47;24.57;;;;;;;4.83;nan;100418.28;4977590;28;20018;-68
2023/03/03 06:37:22;;;;;;;56.85;25.45;;;;;;;4.84;nan;100420.06;4977661;28;20034;-68
2023/03/03 06:39:47;;;;;;;61.00;26.20;;;;;;;4.87;nan;100422.72;4982578;28;20061;-68
2023/03/03 06:42:13;;;;;;;62.80;27.40;;;;;;;4.89;nan;100417.56;4989351;28;20054;-69
2023/03/03 06:44:38;;;;;;;67.20;29.30;;;;;;;4.89;nan;100418.41;4990419;28;20035;-68
2023/03/03 06:47:04;;;;;;;61.70;27.17;;;;;;;4.92;nan;100421.94;4977611;28;20078;-68
2023/03/03 06:49:30;;;;;;;68.85;28.63;;;;;;;4.94;nan;100425.47;4977460;28;20035;-68
2023/03/03 06:52:00;;;;;;;66.97;26.98;;;;;;;4.96;nan;100426.41;4977539;28;20030;-68
2023/03/03 06:54:28;;;;;;;59.85;25.38;;;;;;;4.97;nan;100418.59;4978350;28;20026;-68
2023/03/03 06:56:59;;;;;;;62.60;25.23;;;;;;;5.02;nan;100430.00;4981093;28;20528;-68
2023/03/03 06:59:26;;;;;;;70.60;25.55;;;;;;;5.07;nan;100424.03;4991423;28;20101;-68
2023/03/03 07:01:52;;;;;;;61.80;25.45;;;;;;;5.10;nan;100431.91;4998697;28;20054;-68
2023/03/03 07:04:32;;;;;;;59.67;25.60;;;;;;;5.12;nan;100433.69;5001179;28;20035;-68
2023/03/03 07:07:04;;;;;;;59.33;24.58;;;;;;;5.17;nan;100433.78;5014427;28;20026;-68
2023/03/03 07:09:30;;;;;;;59.07;25.50;;;;;;;5.21;nan;100432.13;4999926;28;20024;-68
2023/03/03 07:12:01;;;;;;;59.58;24.38;;;;;;;5.23;nan;100440.88;4983916;28;20538;-68
2023/03/03 07:14:28;;;;;;;54.90;24.48;;;;;;;5.28;nan;100447.06;4980462;28;20056;-68
2023/03/03 07:17:03;;;;;;;60.63;26.27;;;;;;;5.32;nan;100455.00;4987136;28;20026;-68
2023/03/03 07:19:34;;;;;;;62.25;27.02;;;;;;;5.38;nan;100448.13;4979285;28;20034;-68
2023/03/03 07:22:20;;;;;;;57.47;26.60;;;;;;;5.40;nan;100447.31;4980242;28;20030;-68
2023/03/03 07:25:01;;;;;;;61.13;28.25;;;;;;;5.45;nan;100450.91;4980042;28;20050;-68
2023/03/03 07:27:29;;;;;;;62.35;27.95;;;;;;;5.54;nan;100462.38;5000797;28;20030;-68
2023/03/03 07:30:28;;;;;;;67.20;28.65;;;;;;;5.58;nan;100456.38;4987412;28;20026;-68
2023/03/03 07:32:57;;;;;;;60.08;27.00;;;;;;;5.68;nan;100462.66;4984646;28;20110;-68
2023/03/03 07:35:39;;;;;;;56.40;25.37;;;;;;;5.73;nan;100464.50;4979106;28;20018;-68
2023/03/03 07:38:20;;;;;;;67.55;26.77;;;;;;;5.81;nan;100467.28;4979808;28;20023;-68
2023/03/03 07:40:54;;;;;;;65.90;25.80;;;;;;;5.91;nan;100465.72;4986707;28;20037;-68
2023/03/03 07:43:37;;;;;;;58.30;25.17;;;;;;;6.01;nan;100472.88;4986791;28;20458;-68
2023/03/03 07:46:42;;;;;;;57.67;25.48;;;;;;;6.12;nan;100465.22;4981347;28;20023;-68
2023/03/03 07:49:19;;;;;;;59.20;25.67;;;;;;;6.27;nan;100469.84;4964806;28;20038;-68
2023/03/03 07:51:44;;;;;;;55.35;24.52;;;;;;;6.41;nan;100466.59;4980000;28;20027;-68
2023/03/03 07:54:34;;;;;;;59.83;25.60;;;;;;;6.52;nan;100470.25;4979581;28;20029;-68
2023/03/03 07:57:33;;;;;;;60.45;24.92;;;;;;;6.66;nan;100465.22;4979923;28;20033;-68
2023/03/03 08:00:07;;;;;;;57.58;25.50;;;;;;;6.77;nan;100475.84;4994686;28;20047;-68
2023/03/03 08:02:40;;;;;;;55.33;25.17;;;;;;;6.85;nan;100474.22;4999109;28;20027;-68
2023/03/03 08:05:27;;;;;;;52.88;24.63;;;;;;;6.99;nan;100465.69;5004516;28;20389;-68
2023/03/03 08:08:11;;;;;;;56.17;24.83;;;;;;;7.18;nan;100464.19;4991638;28;20034;-68
2023/03/03 08:10:46;;;;;;;55.58;25.42;;;;;;;7.38;nan;100467.09;4999026;28;20030;-68
2023/03/03 08:13:23;;;;;;;56.13;25.75;;;;;;;7.59;nan;100468.16;4997689;28;20407;-68
2023/03/03 08:15:59;;;;;;;54.67;24.70;;;;;;;7.83;nan;100466.69;4991082;28;20410;-68
2023/03/03 08:18:45;;;;;;;53.78;24.40;;;;;;;8.11;nan;100466.97;4978172;28;20037;-68
2023/03/03 08:21:15;;;;;;;55.03;24.90;;;;;;;8.39;nan;100467.22;4979394;28;20027;-68
2023/03/03 08:23:40;;;;;;;48.72;23.20;;;;;;;8.70;nan;100467.47;4978921;28;20403;-68
2023/03/03 08:26:06;;;;;;;53.30;25.00;;;;;;;9.05;nan;100465.06;4977900;28;20033;-68
2023/03/03 08:28:32;;;;;;;55.15;24.38;;;;;;;9.38;nan;100469.59;4979461;28;20026;-68
2023/03/03 08:30:57;;;;;;;49.80;24.10;;;;;;;9.70;nan;100469.69;4990476;28;20076;-68
2023/03/03 08:33:23;;;;;;;47.67;23.73;;;;;;;10.08;nan;100473.28;4979922;28;20460;-68
2023/03/03 08:35:48;;;;;;;48.10;22.97;;;;;;;10.70;nan;100472.44;4979053;28;20046;-68
2023/03/03 08:38:17;;;;;;;51.47;23.53;;;;;;;11.24;nan;100471.47;4978761;28;20015;-68
2023/03/03 08:40:43;;;;;;;46.03;23.05;;;;;;;11.68;nan;100472.13;4985399;28;20081;-68
2023/03/03 08:43:09;;;;;;;46.00;24.17;;;;;;;12.28;nan;100473.53;4968933;28;20034;-68
2023/03/03 08:45:35;;;;;;;46.03;23.13;;;;;;;12.82;nan;100469.56;4985205;28;20054;-68
2023/03/03 08:48:02;;;;;;;45.23;23.57;;;;;;;13.39;nan;100468.91;4979108;28;20027;-68
2023/03/03 08:50:28;;;;;;;45.60;23.80;;;;;;;15.06;nan;100469.88;4978811;28;20541;-68
2023/03/03 08:52:54;;;;;;;43.97;23.70;;;;;;;15.89;nan;100475.25;4977513;28;20118;-68
2023/03/03 08:55:20;;;;;;;44.17;22.55;;;;;;;17.22;nan;100472.81;4977474;28;20050;-68
2023/03/03 08:57:46;;;;;;;39.97;23.00;;;;;;;18.58;nan;100473.09;4978561;28;20561;-69
2023/03/03 09:00:14;;;;;;;41.57;22.97;;;;;;;20.18;nan;100471.69;4995071;28;20046;-68
2023/03/03 09:02:41;;;;;;;42.80;24.52;;;;;;;21.48;nan;100466.09;4991011;28;20026;-68
2023/03/03 09:05:07;;;;;;;39.00;24.17;;;;;;;22.67;nan;100466.66;5000057;28;20034;-69
2023/03/03 09:07:33;;;;;;;38.27;24.80;;;;;;;23.53;nan;100467.56;5008286;28;20085;-69
2023/03/03 09:09:58;;;;;;;40.95;25.38;;;;;;;24.41;nan;100459.00;5010024;28;20486;-69
2023/03/03 09:12:29;;;;;;;37.80;26.17;;;;;;;24.91;nan;100465.91;4978543;28;20073;-69
2023/03/03 09:14:58;;;;;;;39.90;26.35;;;;;;;25.51;nan;100455.94;4977121;28;20026;-69
2023/03/03 09:17:25;;;;;;;38.45;26.55;;;;;;;26.04;nan;100465.13;4976857;28;20091;-69
2023/03/03 09:19:51;;;;;;;38.77;26.63;;;;;;;26.54;nan;100478.94;4978133;28;20069;-69
2023/03/03 09:22:25;;;;;;;37.58;26.42;;;;;;;27.07;nan;100461.84;4978391;28;20026;-69
2023/03/03 09:24:55;;;;;;;38.13;27.20;;;;;;;27.75;nan;100473.25;4977807;28;20031;-69
2023/03/03 09:27:29;;;;;;;37.22;27.05;;;;;;;27.98;nan;100465.28;4997095;28;20025;-69
2023/03/03 09:30:00;;;;;;;38.20;27.10;;;;;;;28.30;nan;100470.13;4984453;28;20032;-69
2023/03/03 09:32:43;;;;;;;36.75;26.63;;;;;;;28.41;nan;100465.75;4985941;28;20019;-69
2023/03/03 09:35:24;;;;;;;37.25;28.27;;;;;;;28.91;nan;100463.69;4978280;28;20364;-69
2023/03/03 09:37:50;;;;;;;36.95;28.30;;;;;;;29.43;nan;100462.41;4977973;28;20078;-69
2023/03/03 09:40:54;;;;;;;38.58;28.40;;;;;;;29.46;nan;100457.59;4980734;28;20031;-67
2023/03/03 09:44:07;;;;;;;35.80;27.20;;;;;;;29.69;nan;100462.97;4984716;28;20026;-69
2023/03/03 09:46:56;;;;;;;36.83;28.80;;;;;;;29.94;nan;100460.97;4945497;29;20062;-69
2023/03/03 09:49:46;;;;;;;36.25;27.40;;;;;;;29.89;nan;100463.19;4994178;28;20037;-70
2023/03/03 09:52:32;;;;;;;36.08;28.20;;;;;;;30.33;nan;100457.75;4997469;28;20022;-67
2023/03/03 09:55:24;;;;;;;33.92;26.27;;;;;;;30.61;nan;100461.75;4997208;28;20033;-67
2023/03/03 09:58:01;;;;;;;36.83;27.70;;;;;;;30.60;nan;100468.13;4996488;28;20026;-67
2023/03/03 10:00:41;;;;;;;35.92;28.10;;;;;;;30.93;nan;100466.22;4996963;28;20077;-67
2023/03/03 10:03:24;;;;;;;32.45;24.92;;;;;;;30.62;nan;100460.75;4997834;28;20026;-67
2023/03/03 10:06:06;;;;;;;33.47;26.63;;;;;;;30.90;nan;100466.50;5006426;28;20030;-68
2023/03/03 10:09:01;;;;;;;32.78;25.90;;;;;;;31.16;nan;100463.34;4999136;28;20041;-67
2023/03/03 10:11:54;;;;;;;33.53;25.87;;;;;;;31.14;nan;100459.91;4996135;28;20041;-67
2023/03/03 10:14:32;;;;;;;34.75;25.92;;;;;;;31.43;nan;100461.06;4997285;28;20023;-67
2023/03/03 10:17:16;;;;;;;33.80;27.15;;;;;;;31.56;nan;100458.94;4997135;28;20054;-68
2023/03/03 10:20:03;;;;;;;34.67;26.13;;;;;;;31.71;nan;100464.88;4997123;28;20055;-67
2023/03/03 10:22:47;;;;;;;34.22;26.08;;;;;;;31.32;nan;100459.28;4997154;28;20105;-68
2023/03/03 10:25:24;;;;;;;32.50;25.87;;;;;;;31.34;nan;100460.03;4997023;28;20062;-67
2023/03/03 10:28:14;;;;;;;34.83;26.50;;;;;;;31.27;nan;100456.13;5008180;28;20033;-67
2023/03/03 10:30:57;;;;;;;33.70;25.65;;;;;;;32.09;nan;100465.13;4989973;28;20105;-67
2023/03/03 10:33:41;;;;;;;32.53;24.60;;;;;;;32.73;nan;100461.94;4992355;28;20499;-68
2023/03/03 10:36:39;;;;;;;32.75;24.55;;;;;;;33.13;nan;100458.13;4980276;28;20031;-67
2023/03/03 10:39:19;;;;;;;29.70;24.60;;;;;;;33.29;nan;100456.63;4971376;28;20047;-67
2023/03/03 10:41:55;;;;;;;30.42;24.30;;;;;;;33.82;nan;100462.41;4985767;28;20039;-68
2023/03/03 10:44:29;;;;;;;29.85;24.73;;;;;;;34.32;nan;100461.91;4994537;28;20395;-68
2023/03/03 10:47:16;;;;;;;33.90;25.02;;;;;;;33.56;nan;100446.75;4981175;28;20037;-68
2023/03/03 10:50:04;;;;;;;29.80;24.55;;;;;;;32.32;nan;100446.63;4980176;28;20483;-68
2023/03/03 10:52:38;;;;;;;35.27;24.70;;;;;;;31.99;nan;100443.31;4981318;28;20109;-67
2023/03/03 10:55:28;;;;;;;30.92;23.27;;;;;;;30.43;nan;100444.25;4980620;28;20023;-68
2023/03/03 10:58:11;;;;;;;31.33;23.52;;;;;;;28.02;nan;100445.09;4981472;28;20030;-67
2023/03/03 11:01:28;;;;;;;32.83;24.02;;;;;;;25.19;nan;100450.72;4980783;28;20055;-69
2023/03/03 11:03:59;;;;;;;33.45;22.92;;;;;;;23.58;nan;100446.66;4964498;28;20063;-70
2023/03/03 11:06:37;;;;;;;34.50;22.97;;;;;;;22.07;nan;100449.94;4978695;28;20064;-69
2023/03/03 11:09:19;;;;;;;35.17;22.65;;;;;;;21.45;nan;100450.16;4992778;28;20053;-69
2023/03/03 11:11:55;;;;;;;34.38;22.70;;;;;;;22.58;nan;100453.72;5000083;28;20037;-69
2023/03/03 11:14:32;;;;;;;34.80;21.83;;;;;;;23.38;nan;100443.25;4998721;28;20037;-69
2023/03/03 11:17:14;;;;;;;33.33;22.17;;;;;;;22.83;nan;100450.63;4999985;28;20053;-69
2023/03/03 11:19:54;;;;;;;33.40;21.43;;;;;;;22.13;nan;100445.19;5000024;28;20041;-69
2023/03/03 11:22:38;;;;;;;33.08;21.30;;;;;;;21.12;nan;100442.75;5000005;28;20092;-69
2023/03/03 11:25:22;;;;;;;35.20;21.88;;;;;;;20.13;nan;100442.47;4999580;28;20045;-69
2023/03/03 11:28:07;;;;;;;33.90;20.65;;;;;;;19.30;nan;100451.91;5010770;28;20037;-69
2023/03/03 11:30:43;;;;;;;35.35;21.05;;;;;;;18.88;nan;100448.91;4988382;28;20049;-68
2023/03/03 11:33:14;;;;;;;34.27;19.60;;;;;;;18.51;nan;100444.91;4982387;28;20033;-69
2023/03/03 11:35:45;;;;;;;33.83;19.65;;;;;;;19.07;nan;100438.50;4980301;28;20077;-69
2023/03/03 11:38:46;;;;;;;35.83;19.67;;;;;;;20.97;nan;100438.06;4979990;28;20022;-69
2023/03/03 11:41:17;;;;;;;32.25;19.13;;;;;;;23.55;nan;100436.09;4981143;28;20046;-69
2023/03/03 11:43:51;;;;;;;31.13;19.02;;;;;;;24.79;nan;100423.56;4991124;28;20034;-69
2023/03/03 11:46:29;;;;;;;32.07;20.30;;;;;;;25.10;nan;100427.03;4980978;28;20041;-69
2023/03/03 11:48:58;;;;;;;33.03;20.73;;;;;;;25.24;nan;100418.09;4980411;28;20069;-69
2023/03/03 11:51:39;;;;;;;31.65;20.48;;;;;;;25.27;nan;100425.13;4984933;28;20027;-69
2023/03/03 11:54:17;;;;;;;30.10;19.30;;;;;;;24.34;nan;100420.81;4979802;28;20519;-69